YMST weather

Millstream Station Field
Chichester National Park, Western Australia, Australia

Public forecast

Using degrees Celsius for public forecast. Weather courtesy of forecast.io.

METAR (pilot weather report)

Closest report is Paraburdoo Airport, 99.9 nm (185.1 km) SSE. Retrieved 2019/03/21 01:00 UTC (12 minutes ago):

YPBO 210100Z AUTO 11006KT 9999 // NCD 34/15 Q1010

TAF (pilot weather forecast)

Forecast is more than 12 hours old.

Closest forecast is Port Hedland International Airport, 114.4 nm (211.9 km) NE. Retrieved 2019/03/20 06:36 UTC (19 hours ago):

TAF YPPD 200528Z 2006/2106 02015KT CAVOK FM201000 03010KT CAVOK FM201600 09007KT CAVOK FM202000 12008KT CAVOK FM210000 06015KT CAVOK